Time;durP1;ratioP1;P1;durP2;ratioP2;P2;SDS_P1;SDS_P2;PMS_P1;PMS_P2;Temp;Humidity;BMP_temperature;BMP_pressure;BME280_temperature;BME280_humidity;BME280_pressure;Samples;Min_cycle;Max_cycle;Signal;HPM_P1;HPM_P2
2023/09/27 00:02:01;;;;;;;6.60;3.50;;;;;;;26.15;32.27;101420.74;102810;1294;62218;-81
2023/09/27 00:04:28;;;;;;;7.10;3.60;;;;;;;26.14;32.20;101419.18;102796;1293;62150;-80
2023/09/27 00:06:53;;;;;;;7.40;3.40;;;;;;;26.15;32.34;101418.45;102761;1296;62149;-81
2023/09/27 00:09:19;;;;;;;7.00;3.60;;;;;;;26.15;32.18;101415.73;102766;1294;63210;-79
2023/09/27 00:11:44;;;;;;;5.30;3.30;;;;;;;26.14;32.27;101413.77;102819;1294;62307;-81
2023/09/27 00:14:10;;;;;;;5.90;3.30;;;;;;;26.14;32.35;101415.61;102766;1294;62126;-81
2023/09/27 00:16:36;;;;;;;5.40;3.70;;;;;;;26.14;32.41;101416.34;102790;1294;62217;-81
2023/09/27 00:19:05;;;;;;;6.30;3.60;;;;;;;26.13;32.33;101412.06;102851;1294;63813;-82
2023/09/27 00:21:31;;;;;;;5.80;3.60;;;;;;;26.13;32.23;101408.10;102752;1292;66850;-81
2023/09/27 00:23:56;;;;;;;5.60;3.30;;;;;;;26.13;32.24;101406.45;102658;1294;62282;-81
2023/09/27 00:26:22;;;;;;;7.70;3.50;;;;;;;26.13;32.39;101402.16;102935;1297;62214;-79
2023/09/27 00:28:47;;;;;;;4.70;3.30;;;;;;;26.13;32.38;101399.48;102772;1293;62216;-81
2023/09/27 00:31:14;;;;;;;4.70;3.30;;;;;;;26.13;32.46;101395.13;102712;1294;62567;-81
2023/09/27 00:33:40;;;;;;;5.60;3.20;;;;;;;26.13;32.35;101395.47;102845;1293;66775;-81
2023/09/27 00:36:05;;;;;;;4.80;3.10;;;;;;;26.13;32.29;101396.90;102746;1294;62590;-79
2023/09/27 00:38:31;;;;;;;6.40;3.60;;;;;;;26.12;32.18;101395.71;102822;1294;62267;-81
2023/09/27 00:40:57;;;;;;;6.70;3.70;;;;;;;26.12;32.36;101394.46;102793;1294;62212;-80
2023/09/27 00:43:30;;;;;;;5.80;3.60;;;;;;;26.13;32.27;101388.66;102763;1293;62279;-80
2023/09/27 00:46:05;;;;;;;6.00;3.70;;;;;;;26.12;32.30;101387.83;102848;1292;62094;-79
2023/09/27 00:48:32;;;;;;;5.80;3.80;;;;;;;26.12;32.26;101384.60;102847;1294;62090;-79
2023/09/27 00:50:57;;;;;;;6.00;3.20;;;;;;;26.11;32.33;101383.01;102776;1297;63560;-80
2023/09/27 00:53:26;;;;;;;5.50;3.70;;;;;;;26.12;32.52;101381.87;102789;1294;63380;-82
2023/09/27 00:55:52;;;;;;;5.40;3.50;;;;;;;26.12;32.27;101382.25;102768;1297;62218;-82
2023/09/27 00:58:19;;;;;;;8.10;3.70;;;;;;;26.11;32.28;101379.21;102936;1294;62309;-81
2023/09/27 01:00:46;;;;;;;5.60;3.20;;;;;;;26.11;32.30;101379.59;102762;1295;63312;-81
2023/09/27 01:03:12;;;;;;;6.80;3.60;;;;;;;26.11;32.36;101379.56;102455;1294;66826;-81
2023/09/27 01:05:38;;;;;;;8.20;3.40;;;;;;;26.11;32.35;101377.05;102902;1297;62200;-81
2023/09/27 01:08:03;;;;;;;5.90;3.50;;;;;;;26.11;32.24;101376.70;102637;1295;62344;-81
2023/09/27 01:10:29;;;;;;;8.30;3.70;;;;;;;26.11;32.38;101374.02;102403;1294;62599;-82
2023/09/27 01:12:54;;;;;;;6.90;3.30;;;;;;;26.11;32.30;101373.29;102852;1292;62179;-80
2023/09/27 01:15:20;;;;;;;6.30;3.40;;;;;;;26.10;32.38;101374.04;102892;1294;66450;-80
2023/09/27 01:17:53;;;;;;;5.20;3.50;;;;;;;26.11;32.31;101372.58;102754;1294;62236;-81
2023/09/27 01:20:20;;;;;;;6.60;3.40;;;;;;;26.10;32.32;101371.52;102775;1291;62184;-81
2023/09/27 01:22:57;;;;;;;6.30;3.50;;;;;;;26.10;32.28;101370.07;102804;1292;64791;-80
2023/09/27 01:25:31;;;;;;;6.10;3.70;;;;;;;26.10;32.23;101370.44;102832;1293;66595;-81
2023/09/27 01:28:00;;;;;;;8.20;3.70;;;;;;;26.10;32.42;101369.39;102793;1294;62128;-80
2023/09/27 01:30:32;;;;;;;6.40;3.60;;;;;;;26.10;32.34;101366.68;102847;1294;62155;-81
2023/09/27 01:33:08;;;;;;;6.10;3.40;;;;;;;26.10;32.33;101369.21;102768;1291;64915;-80
2023/09/27 01:35:34;;;;;;;6.60;3.40;;;;;;;26.10;32.32;101368.13;102733;1294;66480;-81
2023/09/27 01:38:00;;;;;;;5.90;3.50;;;;;;;26.10;32.39;101367.75;102807;1295;62313;-81
2023/09/27 01:40:30;;;;;;;6.30;3.50;;;;;;;26.10;32.30;101365.96;102795;1294;62726;-81
2023/09/27 01:42:57;;;;;;;4.80;3.00;;;;;;;26.10;32.33;101367.25;102759;1296;64840;-82
2023/09/27 01:45:23;;;;;;;6.20;3.30;;;;;;;26.10;32.31;101367.05;102871;1294;68639;-80
2023/09/27 01:47:49;;;;;;;6.70;3.20;;;;;;;26.10;32.39;101365.25;102761;1295;63325;-81
2023/09/27 01:50:14;;;;;;;4.90;3.10;;;;;;;26.10;32.50;101368.46;102734;1294;62300;-81
2023/09/27 01:52:40;;;;;;;5.10;3.60;;;;;;;26.10;32.26;101365.23;102775;1294;62201;-80
2023/09/27 01:55:06;;;;;;;5.60;3.20;;;;;;;26.09;32.33;101365.11;102694;1297;63567;-82
2023/09/27 01:57:31;;;;;;;6.20;3.70;;;;;;;26.10;32.31;101360.95;102938;1292;63313;-81
2023/09/27 01:59:57;;;;;;;7.40;3.50;;;;;;;26.09;32.39;101363.30;102748;1294;62168;-81
2023/09/27 02:02:23;;;;;;;6.80;3.40;;;;;;;26.09;32.20;101360.59;102751;1295;62132;-81
2023/09/27 02:04:48;;;;;;;6.00;3.20;;;;;;;26.09;32.21;101361.71;102812;1297;64465;-80
2023/09/27 02:07:14;;;;;;;5.90;3.30;;;;;;;26.09;32.23;101359.55;102758;1294;63481;-81
2023/09/27 02:09:39;;;;;;;7.00;3.50;;;;;;;26.09;32.35;101355.78;102785;1296;62294;-80
2023/09/27 02:12:05;;;;;;;5.30;3.30;;;;;;;26.09;32.27;101355.42;102772;1295;62202;-81
2023/09/27 02:14:31;;;;;;;5.50;3.50;;;;;;;26.09;32.29;101356.69;102780;1294;63397;-81
2023/09/27 02:16:56;;;;;;;4.80;3.20;;;;;;;26.09;32.28;101355.59;102725;1297;63296;-81
2023/09/27 02:19:22;;;;;;;4.60;3.20;;;;;;;26.08;32.20;101355.80;102758;1292;62230;-81
2023/09/27 02:21:49;;;;;;;6.50;3.80;;;;;;;26.09;32.06;101355.79;102821;1297;62906;-80
2023/09/27 02:24:16;;;;;;;5.50;3.30;;;;;;;26.08;32.13;101357.61;102682;1297;62220;-81
2023/09/27 02:26:44;;;;;;;6.90;3.40;;;;;;;26.08;32.19;101356.55;102775;1292;62146;-81
2023/09/27 02:29:09;;;;;;;6.00;3.30;;;;;;;26.08;32.17;101357.05;102728;1292;64617;-82
2023/09/27 02:31:35;;;;;;;5.80;3.40;;;;;;;26.08;32.05;101355.86;102751;1295;63117;-81
2023/09/27 02:34:01;;;;;;;5.50;3.30;;;;;;;26.08;32.18;101357.67;102805;1295;62300;-81
2023/09/27 02:36:26;;;;;;;4.90;3.30;;;;;;;26.08;32.00;101358.90;102712;1295;63250;-82
2023/09/27 02:38:52;;;;;;;5.50;3.20;;;;;;;26.08;32.35;101365.02;102778;1295;62222;-81
2023/09/27 02:41:17;;;;;;;6.80;3.60;;;;;;;26.08;32.16;101362.50;102789;1294;62102;-81
2023/09/27 02:43:43;;;;;;;7.40;3.60;;;;;;;26.08;32.20;101361.79;102717;1295;62353;-82
2023/09/27 02:46:09;;;;;;;6.70;3.20;;;;;;;26.08;32.11;101363.60;102822;1294;62102;-81
2023/09/27 02:48:34;;;;;;;5.10;3.10;;;;;;;26.07;32.08;101361.46;102642;1299;62179;-81
2023/09/27 02:51:00;;;;;;;7.00;3.30;;;;;;;26.07;32.21;101366.37;102748;1297;62290;-80
2023/09/27 02:53:26;;;;;;;4.50;3.20;;;;;;;26.08;32.33;101364.36;102855;1294;63091;-81
2023/09/27 02:55:51;;;;;;;6.50;3.50;;;;;;;26.07;32.13;101364.55;102413;1291;66062;-81
2023/09/27 02:58:18;;;;;;;5.60;3.70;;;;;;;26.08;32.28;101363.64;102802;1294;62261;-81
2023/09/27 03:00:45;;;;;;;6.80;3.70;;;;;;;26.07;32.32;101365.28;102694;1291;62120;-82
2023/09/27 03:03:10;;;;;;;5.20;3.20;;;;;;;26.07;32.16;101369.62;102746;1294;63464;-80
2023/09/27 03:05:36;;;;;;;5.20;3.30;;;;;;;26.07;32.23;101371.06;102535;1294;378446;-81
2023/09/27 03:08:03;;;;;;;6.30;3.30;;;;;;;26.07;32.22;101370.87;102776;1293;62270;-80
2023/09/27 03:10:29;;;;;;;5.70;3.40;;;;;;;26.07;32.30;101367.82;102836;1297;62165;-81
2023/09/27 03:12:55;;;;;;;5.30;3.20;;;;;;;26.07;32.35;101367.84;102722;1297;62571;-81
2023/09/27 03:15:22;;;;;;;5.20;3.40;;;;;;;26.07;32.36;101371.63;102811;1294;62248;-81
2023/09/27 03:17:48;;;;;;;6.90;3.30;;;;;;;26.07;32.21;101372.73;102714;1294;62219;-80
2023/09/27 03:20:16;;;;;;;5.80;3.20;;;;;;;26.07;32.21;101372.20;103007;1295;62653;-80
2023/09/27 03:22:49;;;;;;;7.40;3.70;;;;;;;26.06;32.18;101371.85;102707;1296;62212;-81
2023/09/27 03:25:17;;;;;;;5.60;3.30;;;;;;;26.06;32.10;101373.70;102703;1298;65963;-81
2023/09/27 03:27:43;;;;;;;6.00;3.60;;;;;;;26.06;32.09;101373.36;102737;1299;62194;-81
2023/09/27 03:30:09;;;;;;;5.50;3.30;;;;;;;26.05;32.28;101378.29;102880;1292;63475;-81
2023/09/27 03:32:34;;;;;;;6.60;3.50;;;;;;;26.05;32.17;101379.16;102763;1294;62545;-81
2023/09/27 03:35:00;;;;;;;5.70;3.50;;;;;;;26.04;32.22;101383.91;102678;1297;63287;-81
2023/09/27 03:37:26;;;;;;;7.80;3.40;;;;;;;26.04;32.11;101384.67;102729;1297;62217;-81
2023/09/27 03:39:55;;;;;;;7.20;3.70;;;;;;;26.04;31.99;101385.96;102788;1292;62533;-81
2023/09/27 03:42:22;;;;;;;6.00;3.50;;;;;;;26.03;31.97;101385.29;102771;1294;62217;-81
2023/09/27 03:44:51;;;;;;;6.30;3.70;;;;;;;26.02;31.89;101386.63;102723;1292;70794;-82
2023/09/27 03:47:17;;;;;;;9.20;4.20;;;;;;;26.01;31.74;101384.91;102876;1295;67416;-81
2023/09/27 03:49:43;;;;;;;15.00;4.10;;;;;;;26.00;31.49;101388.98;102754;1297;62306;-81
2023/09/27 03:52:09;;;;;;;11.00;3.90;;;;;;;25.98;31.54;101386.41;102767;1294;63533;-82
2023/09/27 03:54:35;;;;;;;11.30;3.90;;;;;;;25.98;31.16;101384.64;102779;1297;62221;-81
2023/09/27 03:57:01;;;;;;;12.60;3.90;;;;;;;25.96;31.14;101384.04;102724;1295;62238;-81
2023/09/27 03:59:26;;;;;;;11.30;3.90;;;;;;;25.94;30.90;101386.75;102783;1297;62299;-80
2023/09/27 04:01:52;;;;;;;12.90;4.30;;;;;;;25.92;30.98;101389.23;102772;1295;62218;-81
2023/09/27 04:04:18;;;;;;;16.70;4.40;;;;;;;25.91;30.63;101392.56;102794;1293;62184;-80
2023/09/27 04:06:44;;;;;;;11.90;4.00;;;;;;;25.89;30.63;101389.81;102829;1294;62293;-81
2023/09/27 04:09:10;;;;;;;10.30;4.30;;;;;;;25.88;30.50;101390.27;102740;1294;62648;-80
2023/09/27 04:11:36;;;;;;;13.20;4.40;;;;;;;25.87;30.58;101391.44;102755;1297;62105;-81
2023/09/27 04:14:03;;;;;;;11.80;4.20;;;;;;;25.87;30.41;101394.22;102791;1293;62221;-81
2023/09/27 04:16:30;;;;;;;16.00;4.00;;;;;;;25.86;30.24;101394.98;102743;1297;63491;-81
2023/09/27 04:18:57;;;;;;;15.80;4.70;;;;;;;25.84;30.38;101395.70;102817;1293;63440;-82
2023/09/27 04:21:23;;;;;;;16.10;4.30;;;;;;;25.83;30.32;101396.29;102852;1294;62095;-82
2023/09/27 04:23:56;;;;;;;13.50;4.70;;;;;;;25.82;30.37;101399.79;102775;1294;62286;-82
2023/09/27 04:26:23;;;;;;;15.30;4.00;;;;;;;25.80;30.28;101404.26;102832;1294;63739;-81
2023/09/27 04:28:50;;;;;;;12.70;4.80;;;;;;;25.78;30.10;101399.75;102785;1292;66639;-81
2023/09/27 04:31:16;;;;;;;12.50;4.10;;;;;;;25.75;29.91;101399.11;102688;1297;62177;-81
2023/09/27 04:33:44;;;;;;;10.50;3.90;;;;;;;25.73;29.86;101403.42;102840;1293;62266;-81
2023/09/27 04:36:17;;;;;;;11.50;3.90;;;;;;;25.72;29.85;101403.64;102846;1297;64747;-79
2023/09/27 04:38:46;;;;;;;13.60;4.50;;;;;;;25.71;29.97;101406.78;102833;1294;66587;-82
2023/09/27 04:41:17;;;;;;;16.60;4.30;;;;;;;25.71;29.85;101410.08;103145;1292;60280;-81
2023/09/27 04:43:44;;;;;;;8.00;4.10;;;;;;;25.69;29.78;101410.56;103454;1292;62102;-80
2023/09/27 04:46:17;;;;;;;10.70;4.30;;;;;;;25.68;29.86;101409.05;103437;1295;65252;-81
2023/09/27 04:48:43;;;;;;;14.30;4.60;;;;;;;25.64;29.74;101408.48;103584;1296;66429;-81
2023/09/27 04:51:09;;;;;;;12.50;4.50;;;;;;;25.61;29.66;101411.45;103497;1293;63355;-81
2023/09/27 04:54:03;;;;;;;10.30;4.40;;;;;;;25.57;29.82;101408.66;103687;1294;62222;-83
2023/09/27 04:56:31;;;;;;;14.90;5.00;;;;;;;25.47;29.66;101412.75;103526;1302;63860;-81
2023/09/27 04:58:58;;;;;;;21.10;4.90;;;;;;;25.25;29.49;101413.73;103259;1299;69100;-81
2023/09/27 05:01:26;;;;;;;19.20;5.50;;;;;;;25.16;29.57;101411.24;103756;1298;62673;-82
2023/09/27 05:03:51;;;;;;;17.70;4.80;;;;;;;25.12;29.73;101410.06;103654;1298;62012;-82
2023/09/27 05:06:18;;;;;;;13.20;4.60;;;;;;;25.01;29.58;101414.00;103226;1300;62532;-80
2023/09/27 05:08:44;;;;;;;12.40;4.50;;;;;;;24.95;29.63;101417.55;103217;1299;63411;-81
2023/09/27 05:11:10;;;;;;;9.30;4.70;;;;;;;24.88;29.57;101414.46;103549;1300;62136;-81
2023/09/27 05:13:35;;;;;;;11.20;4.60;;;;;;;24.89;29.57;101416.59;103485;1299;62194;-83
2023/09/27 05:16:03;;;;;;;14.00;4.00;;;;;;;24.87;29.51;101419.02;103146;1300;62261;-81
2023/09/27 05:18:28;;;;;;;10.40;4.60;;;;;;;24.77;29.29;101415.55;103067;1303;63100;-82
2023/09/27 05:20:54;;;;;;;10.50;4.70;;;;;;;24.63;29.37;101415.83;103186;1301;62116;-82
2023/09/27 05:23:20;;;;;;;10.30;4.50;;;;;;;24.48;29.51;101416.61;103214;1299;62379;-82
2023/09/27 05:25:46;;;;;;;19.60;5.00;;;;;;;24.43;29.57;101421.30;103299;1298;61130;-82
2023/09/27 05:28:12;;;;;;;9.50;5.10;;;;;;;24.44;29.45;101421.59;103381;1302;62208;-82
2023/09/27 05:30:38;;;;;;;14.20;4.70;;;;;;;24.43;29.47;101424.15;103506;1300;63308;-82
2023/09/27 05:33:06;;;;;;;12.40;4.60;;;;;;;24.40;29.57;101427.48;103656;1300;61159;-81
2023/09/27 05:35:32;;;;;;;9.20;4.80;;;;;;;24.39;29.61;101425.91;103700;1295;61983;-82
2023/09/27 05:37:58;;;;;;;11.60;4.90;;;;;;;24.38;29.63;101420.97;103791;1292;62182;-81
2023/09/27 05:40:24;;;;;;;10.00;4.50;;;;;;;24.37;29.53;101425.92;103819;1297;62217;-82
2023/09/27 05:42:50;;;;;;;14.80;5.10;;;;;;;24.36;29.58;101424.70;104030;1294;62236;-83
2023/09/27 05:45:16;;;;;;;10.70;4.70;;;;;;;24.38;29.60;101423.84;104197;1292;60431;-82
2023/09/27 05:47:42;;;;;;;19.60;5.50;;;;;;;24.41;29.54;101424.51;103949;1297;62536;-81
2023/09/27 05:50:08;;;;;;;14.20;4.60;;;;;;;24.43;29.66;101426.70;104004;1293;62125;-81
2023/09/27 05:52:35;;;;;;;15.00;4.80;;;;;;;24.46;29.67;101426.65;103905;1294;60269;-81
2023/09/27 05:55:05;;;;;;;14.50;5.10;;;;;;;24.44;29.45;101425.92;104179;1292;62199;-80
2023/09/27 05:57:30;;;;;;;10.30;4.50;;;;;;;24.42;29.51;101432.73;104071;1295;73249;-80
2023/09/27 05:59:58;;;;;;;11.80;5.10;;;;;;;24.42;29.71;101429.25;103816;1296;62208;-81
2023/09/27 06:02:30;;;;;;;14.40;4.90;;;;;;;24.42;29.74;101428.03;104107;1292;62214;-80
2023/09/27 06:04:56;;;;;;;17.70;4.90;;;;;;;24.36;29.73;101431.91;103862;1297;62212;-80
2023/09/27 06:07:22;;;;;;;13.40;4.70;;;;;;;24.34;29.78;101438.70;103942;1297;62191;-81
2023/09/27 06:09:48;;;;;;;13.00;4.50;;;;;;;24.33;29.77;101437.89;104071;1294;62150;-80
2023/09/27 06:12:14;;;;;;;8.40;4.50;;;;;;;24.33;29.72;101437.19;103920;1295;62281;-81
2023/09/27 06:14:42;;;;;;;15.20;4.90;;;;;;;24.36;29.76;101435.30;103958;1294;62141;-80
2023/09/27 06:17:08;;;;;;;14.10;4.90;;;;;;;24.42;29.81;101434.52;103752;1297;62223;-81
2023/09/27 06:19:34;;;;;;;14.00;4.90;;;;;;;24.47;29.74;101431.45;103803;1298;62068;-81
2023/09/27 06:22:04;;;;;;;9.40;4.70;;;;;;;24.46;29.79;101430.09;103841;1292;62237;-81
2023/09/27 06:24:30;;;;;;;10.10;4.90;;;;;;;24.42;29.70;101431.81;103915;1297;62033;-81
2023/09/27 06:26:58;;;;;;;17.20;4.80;;;;;;;24.37;29.78;101434.35;103742;1294;63593;-82
2023/09/27 06:29:25;;;;;;;18.80;5.30;;;;;;;24.38;29.82;101438.05;103671;1296;75211;-81
2023/09/27 06:31:50;;;;;;;9.60;4.80;;;;;;;24.40;29.87;101433.77;104177;1293;62203;-81
2023/09/27 06:34:17;;;;;;;16.20;4.60;;;;;;;24.44;29.80;101438.85;103857;1297;62159;-81
2023/09/27 06:36:42;;;;;;;17.40;4.70;;;;;;;24.48;29.94;101434.23;103775;1294;62188;-81
2023/09/27 06:39:12;;;;;;;15.80;4.90;;;;;;;24.54;29.93;101433.06;103738;1294;62356;-82
2023/09/27 06:41:48;;;;;;;17.80;4.80;;;;;;;24.63;29.89;101437.31;103841;1293;62133;-80
2023/09/27 06:44:13;;;;;;;17.40;4.90;;;;;;;24.71;29.96;101437.60;103836;1294;63919;-81
2023/09/27 06:46:39;;;;;;;16.60;4.90;;;;;;;24.75;29.99;101439.76;103728;1293;62160;-81
2023/09/27 06:49:07;;;;;;;15.10;5.00;;;;;;;24.82;29.92;101438.20;103657;1294;63244;-81
2023/09/27 06:51:39;;;;;;;18.50;5.60;;;;;;;24.86;29.99;101440.41;103952;1293;61946;-82
2023/09/27 06:54:05;;;;;;;24.70;5.40;;;;;;;24.89;29.99;101441.95;104342;1294;62088;-82
2023/09/27 06:56:31;;;;;;;21.50;5.20;;;;;;;24.92;30.03;101438.96;104040;1294;62182;-82
2023/09/27 06:58:57;;;;;;;20.80;5.30;;;;;;;24.99;30.17;101438.45;104278;1296;62034;-81
2023/09/27 07:01:24;;;;;;;26.80;5.80;;;;;;;25.04;30.43;101437.52;103993;1297;62121;-81
2023/09/27 07:03:50;;;;;;;20.80;5.20;;;;;;;25.07;30.55;101439.48;104082;1296;62099;-81
2023/09/27 07:06:16;;;;;;;11.70;5.30;;;;;;;25.10;30.56;101443.73;104152;1296;63340;-81
2023/09/27 07:08:46;;;;;;;11.70;5.20;;;;;;;25.10;30.42;101443.52;103825;1297;62216;-82
2023/09/27 07:11:13;;;;;;;21.80;5.40;;;;;;;25.08;30.47;101448.21;103895;1294;62115;-81
2023/09/27 07:13:40;;;;;;;16.50;5.60;;;;;;;25.10;30.39;101448.20;104067;1292;62249;-81
2023/09/27 07:16:26;;;;;;;15.50;5.50;;;;;;;25.14;30.53;101449.40;104011;1297;62170;-82
2023/09/27 07:18:55;;;;;;;14.40;5.20;;;;;;;25.14;30.35;101452.63;103894;1292;66880;-81
2023/09/27 07:21:23;;;;;;;16.40;5.30;;;;;;;25.05;30.19;101457.46;103936;1293;62196;-81
2023/09/27 07:23:49;;;;;;;14.10;5.50;;;;;;;25.02;30.28;101458.26;103755;1291;62207;-81
2023/09/27 07:26:16;;;;;;;13.60;4.80;;;;;;;25.04;30.25;101457.17;103805;1292;62041;-81
2023/09/27 07:28:42;;;;;;;12.00;5.00;;;;;;;25.11;30.29;101455.56;103941;1297;75285;-81
2023/09/27 07:31:08;;;;;;;15.20;4.90;;;;;;;25.17;30.22;101450.80;103983;1293;62723;-80
2023/09/27 07:33:34;;;;;;;19.90;5.40;;;;;;;25.22;30.26;101449.46;104018;1292;62303;-80
2023/09/27 07:35:59;;;;;;;13.70;5.10;;;;;;;25.28;30.15;101447.74;104000;1293;62129;-80
2023/09/27 07:38:26;;;;;;;13.30;5.00;;;;;;;25.33;30.21;101453.80;103871;1295;60618;-81
2023/09/27 07:40:51;;;;;;;14.40;5.30;;;;;;;25.36;30.20;101453.56;104108;1297;61970;-82
2023/09/27 07:43:18;;;;;;;20.70;5.20;;;;;;;25.39;30.12;101458.62;104214;1293;62195;-81
2023/09/27 07:45:47;;;;;;;20.90;4.90;;;;;;;25.40;30.11;101454.75;104127;1297;62104;-82
2023/09/27 07:48:12;;;;;;;17.90;4.90;;;;;;;25.41;30.03;101459.14;103835;1293;63930;-80
2023/09/27 07:50:39;;;;;;;15.90;5.10;;;;;;;25.42;29.95;101459.95;103810;1292;62214;-81
2023/09/27 07:53:06;;;;;;;14.10;5.10;;;;;;;25.44;29.85;101455.90;103985;1297;62140;-80
2023/09/27 07:55:43;;;;;;;19.40;5.50;;;;;;;25.42;29.70;101452.05;104269;1297;61838;-82
2023/09/27 07:58:09;;;;;;;18.80;5.10;;;;;;;25.44;29.93;101452.09;104851;1297;73564;-80
2023/09/27 08:00:35;;;;;;;22.70;5.50;;;;;;;25.46;30.09;101452.45;105768;1297;75298;-81
2023/09/27 08:03:02;;;;;;;14.70;4.70;;;;;;;25.46;29.96;101457.02;105738;1294;62021;-81
2023/09/27 08:05:28;;;;;;;18.30;4.80;;;;;;;25.44;29.92;101458.89;104306;1296;62217;-81
2023/09/27 08:07:54;;;;;;;15.80;4.50;;;;;;;25.45;29.85;101459.06;103992;1292;62287;-80
2023/09/27 08:10:21;;;;;;;13.30;5.00;;;;;;;25.45;29.80;101460.86;104104;1297;62232;-80
2023/09/27 08:12:47;;;;;;;18.20;4.50;;;;;;;25.46;29.76;101461.66;103989;1292;62185;-79
2023/09/27 08:15:12;;;;;;;16.50;4.70;;;;;;;25.45;29.76;101459.56;103864;1297;62223;-80
2023/09/27 08:17:38;;;;;;;16.20;5.00;;;;;;;25.44;29.63;101462.36;103847;1295;62287;-79
2023/09/27 08:20:06;;;;;;;18.50;4.60;;;;;;;25.47;29.64;101461.76;103696;1293;61964;-79
2023/09/27 08:22:35;;;;;;;12.40;4.50;;;;;;;25.51;29.73;101458.39;103686;1293;62115;-79
2023/09/27 08:25:01;;;;;;;;;;;;;;;25.54;29.66;101461.20;103599;1295;62200;-80
2023/09/27 08:27:27;;;;;;;8.30;4.30;;;;;;;25.55;29.71;101462.38;103928;1293;62104;-80
2023/09/27 08:29:53;;;;;;;14.70;4.40;;;;;;;25.59;29.57;101466.71;103933;1297;62297;-79
2023/09/27 08:32:18;;;;;;;12.70;4.60;;;;;;;25.61;29.66;101458.08;103636;1295;62160;-81
2023/09/27 08:34:46;;;;;;;12.20;4.50;;;;;;;25.63;29.55;101457.21;103600;1295;62188;-79
2023/09/27 08:37:11;;;;;;;13.70;4.10;;;;;;;25.64;29.45;101453.75;104081;1296;62214;-80
2023/09/27 08:39:38;;;;;;;13.00;4.60;;;;;;;25.65;29.48;101450.38;103845;1292;62252;-81
2023/09/27 08:42:04;;;;;;;13.50;4.20;;;;;;;25.66;29.48;101452.48;103979;1292;62674;-80
2023/09/27 08:44:31;;;;;;;10.10;4.50;;;;;;;25.67;29.47;101454.58;104628;1293;60909;-80
2023/09/27 08:46:57;;;;;;;8.60;3.70;;;;;;;25.69;29.50;101458.36;104489;1292;60565;-81
2023/09/27 08:49:23;;;;;;;13.10;4.60;;;;;;;25.70;29.40;101456.44;104507;1292;62121;-82
2023/09/27 08:51:49;;;;;;;8.30;4.10;;;;;;;25.71;29.25;101454.83;105624;1293;66637;-81
2023/09/27 08:54:17;;;;;;;19.00;4.70;;;;;;;25.71;29.10;101456.02;105478;1292;60468;-80
2023/09/27 08:56:50;;;;;;;20.90;4.80;;;;;;;25.69;29.18;101457.09;104717;1295;62035;-82
2023/09/27 08:59:20;;;;;;;18.40;4.30;;;;;;;25.68;29.60;101461.70;104683;1293;63923;-82
2023/09/27 09:01:45;;;;;;;16.00;4.10;;;;;;;25.68;29.57;101460.80;104350;1296;66359;-83
2023/09/27 09:04:12;;;;;;;15.50;4.00;;;;;;;25.68;29.47;101457.21;104570;1292;62292;-82
2023/09/27 09:06:39;;;;;;;20.00;4.70;;;;;;;25.68;29.29;101457.41;104651;1293;60277;-79
2023/09/27 09:09:11;;;;;;;13.40;4.00;;;;;;;25.69;29.42;101457.85;104336;1295;64111;-81
2023/09/27 09:11:49;;;;;;;22.00;4.70;;;;;;;25.74;29.70;101463.53;104602;1294;66682;-84
2023/09/27 09:14:17;;;;;;;13.80;4.20;;;;;;;25.80;30.00;101456.58;104748;1292;59830;-83
2023/09/27 09:16:50;;;;;;;11.30;4.10;;;;;;;25.85;29.90;101454.73;104781;1293;59922;-82
2023/09/27 09:19:22;;;;;;;11.20;4.00;;;;;;;25.88;29.88;101450.66;104529;1295;63937;-81
2023/09/27 09:22:05;;;;;;;22.50;4.20;;;;;;;25.91;29.92;101443.38;104348;1291;67671;-82
2023/09/27 09:24:32;;;;;;;12.60;4.70;;;;;;;25.92;29.87;101444.39;104083;1293;62008;-82
2023/09/27 09:27:19;;;;;;;15.60;4.70;;;;;;;25.92;29.75;101446.04;104313;1292;61538;-81
2023/09/27 09:29:49;;;;;;;11.10;4.40;;;;;;;25.93;29.73;101441.49;104186;1290;63751;-82
2023/09/27 09:32:20;;;;;;;18.30;4.30;;;;;;;25.94;29.79;101447.67;104152;1293;67708;-82
2023/09/27 09:34:50;;;;;;;10.80;3.70;;;;;;;25.94;29.74;101445.29;104062;1292;62227;-82
2023/09/27 09:37:19;;;;;;;15.90;3.70;;;;;;;25.96;29.47;101445.17;104350;1294;60752;-82
2023/09/27 09:39:46;;;;;;;12.30;3.80;;;;;;;25.97;29.53;101440.07;104470;1294;64948;-82
2023/09/27 09:42:13;;;;;;;13.90;3.70;;;;;;;25.98;29.47;101432.80;104504;1293;66905;-81
2023/09/27 09:44:39;;;;;;;12.80;4.00;;;;;;;25.99;29.39;101435.91;104506;1291;62226;-81
2023/09/27 09:47:12;;;;;;;12.70;3.70;;;;;;;26.01;29.51;101436.82;104327;1292;62045;-82
2023/09/27 09:49:38;;;;;;;18.80;4.00;;;;;;;26.02;29.56;101433.16;104619;1293;64057;-81
2023/09/27 09:52:05;;;;;;;13.10;4.00;;;;;;;26.03;29.52;101434.19;104825;1294;66707;-82
2023/09/27 09:54:41;;;;;;;12.30;3.90;;;;;;;26.04;29.41;101432.67;105085;1294;60666;-82
2023/09/27 09:57:06;;;;;;;10.30;3.80;;;;;;;26.04;29.29;101431.73;104933;1291;59899;-81
2023/09/27 09:59:40;;;;;;;14.80;4.10;;;;;;;26.05;29.26;101435.12;104792;1293;62050;-82
2023/09/27 10:02:19;;;;;;;16.70;3.90;;;;;;;26.05;29.18;101432.04;104967;1291;67220;-83
2023/09/27 10:04:45;;;;;;;11.40;3.80;;;;;;;26.06;29.15;101422.77;105076;1294;60542;-82
2023/09/27 10:07:13;;;;;;;19.40;4.10;;;;;;;26.05;28.93;101422.16;105058;1293;62083;-83
2023/09/27 10:09:39;;;;;;;15.40;4.30;;;;;;;26.04;29.23;101424.52;104993;1295;72353;-82
2023/09/27 10:12:05;;;;;;;13.50;4.00;;;;;;;26.05;29.26;101423.56;104877;1297;62138;-82
2023/09/27 10:14:30;;;;;;;16.80;3.90;;;;;;;26.07;29.22;101417.05;104973;1297;61305;-81
2023/09/27 10:16:56;;;;;;;12.90;4.30;;;;;;;26.07;29.19;101414.87;104941;1293;62072;-81
2023/09/27 10:19:27;;;;;;;12.90;4.10;;;;;;;26.07;29.18;101413.50;104665;1293;62084;-81
2023/09/27 10:22:06;;;;;;;18.20;4.20;;;;;;;26.07;29.26;101411.70;104502;1293;65603;-82
2023/09/27 10:24:34;;;;;;;16.60;4.10;;;;;;;26.07;29.43;101417.45;104558;1293;61892;-81
2023/09/27 10:27:00;;;;;;;18.10;4.40;;;;;;;26.07;29.37;101408.60;104926;1292;59438;-82
2023/09/27 10:29:27;;;;;;;16.90;4.00;;;;;;;26.06;29.02;101409.36;104742;1290;60437;-82
2023/09/27 10:31:56;;;;;;;12.20;4.20;;;;;;;26.05;29.13;101413.08;104696;1294;62126;-81
2023/09/27 10:34:25;;;;;;;;;;;;;;;26.06;29.15;101412.61;104736;1292;62625;-80
2023/09/27 10:36:51;;;;;;;8.90;3.90;;;;;;;26.05;29.22;101410.89;105728;1293;59808;-82
2023/09/27 10:39:17;;;;;;;13.10;3.80;;;;;;;26.08;29.44;101413.36;105722;1292;60107;-82
2023/09/27 10:41:49;;;;;;;10.70;3.80;;;;;;;26.09;29.58;101405.91;105828;1294;59976;-81
2023/09/27 10:44:33;;;;;;;9.50;3.70;;;;;;;26.09;29.29;101404.61;105894;1290;59919;-82
2023/09/27 10:47:01;;;;;;;12.20;3.80;;;;;;;26.10;29.26;101400.60;105890;1292;59890;-81
2023/09/27 10:49:30;;;;;;;10.90;3.90;;;;;;;26.10;29.05;101398.80;105730;1293;63774;-81
2023/09/27 10:51:55;;;;;;;;;;;;;;;26.08;28.71;101387.00;105379;1293;67608;-81
2023/09/27 10:54:22;;;;;;;10.80;3.50;;;;;;;26.06;28.87;101385.77;103950;1293;62205;-81
2023/09/27 10:56:53;;;;;;;12.30;3.80;;;;;;;26.06;28.83;101377.98;104123;1292;62215;-80
2023/09/27 10:59:30;;;;;;;10.90;3.20;;;;;;;26.08;28.79;101377.88;104170;1293;63777;-81
2023/09/27 11:01:58;;;;;;;19.90;4.10;;;;;;;26.08;28.74;101374.80;104054;1293;66394;-81
2023/09/27 11:04:25;;;;;;;13.10;3.80;;;;;;;26.09;28.66;101370.77;104665;1292;62194;-81
2023/09/27 11:06:50;;;;;;;11.40;3.90;;;;;;;26.10;28.57;101375.88;104713;1294;62015;-81
2023/09/27 11:09:19;;;;;;;11.50;3.40;;;;;;;26.10;28.32;101375.52;104528;1292;62152;-83
2023/09/27 11:11:46;;;;;;;12.20;3.70;;;;;;;26.10;28.53;101376.05;104209;1297;66694;-82
2023/09/27 11:14:13;;;;;;;14.50;4.00;;;;;;;26.10;28.46;101372.64;104765;1294;62013;-82